Terminal Aerodrome Forecast
Issued by NWS

Home | Current Version | Previous Version | Text Only | Print | Product List | Glossary On
Versions: 1 2 3 4 5 6 7 8 9 10 11 12 13 14 15
000
FTUS45 KRIW 202100 AAB
TAFBPI
TAF AMD
KBPI 202121Z 2021/2118 35010G20KT P6SM SCT080
     FM210200 35006KT P6SM FEW250
     FM211200 16005KT P6SM SCT090 BKN200=

USA.gov is the U.S. government's official web portal to all federal, state and local government web resources and services.